VJT402 EGGW-CYYC
Flight info
| Callsign | VJT402 |
|---|---|
| Flight time | N/A |
| Altitude | 34000 |
| Route | OLNEY T420 TNT DCT ABEVI DCT LORTA DCT GOW DCT ORSUM DCT ORTAV/M080F320 DCT KFV/M082F340 DCT SORIR DCT SS/N0470F380 DCT YZS/N0482F400 J540 YYL V303 YVC Q959 WAINN DCT IGVUX Q882 BIRKO BIRKO6 |
| Aircraft | CL60/M-ICAO/HB1D1 |
Departure
| Time | 2026-05-05 17:19 |
|---|---|
| Airport | London Luton Airport (EGGW) |
Arrival
| Time | N/A |
|---|---|
| Airport | Calgary International Airport (CYYC) |
| Time | Latitude | Longitude | Altitude | Speed | Heading |
|---|---|---|---|---|---|
| 2026-05-05 16:39 | 51.87714 | -0.37812 | 527 ft | 0 kts | 206° |
| 2026-05-05 17:15 | 51.87711 | -0.37820 | 527 ft | 4 kts | 262° |
| 2026-05-05 17:16 | 51.87756 | -0.37770 | 527 ft | 12 kts | 76° |
| 2026-05-05 17:16 | 51.87720 | -0.37628 | 526 ft | 15 kts | 113° |
| 2026-05-05 17:16 | 51.87660 | -0.37480 | 526 ft | 16 kts | 150° |
| 2026-05-05 17:16 | 51.87546 | -0.37464 | 528 ft | 16 kts | 203° |
| 2026-05-05 17:17 | 51.87492 | -0.37619 | 529 ft | 17 kts | 254° |
| 2026-05-05 17:17 | 51.87458 | -0.37821 | 526 ft | 20 kts | 253° |
| 2026-05-05 17:17 | 51.87390 | -0.38043 | 517 ft | 24 kts | 213° |
| 2026-05-05 17:17 | 51.87353 | -0.38074 | 515 ft | 6 kts | 205° |
| 2026-05-05 17:18 | 51.87266 | -0.38104 | 512 ft | 12 kts | 148° |
| 2026-05-05 17:18 | 51.87263 | -0.38004 | 517 ft | 13 kts | 75° |
| 2026-05-05 17:18 | 51.87363 | -0.37442 | 530 ft | 92 kts | 75° |
| 2026-05-05 17:18 | 51.87597 | -0.36077 | 534 ft | 155 kts | 71° |
| 2026-05-05 17:19 | 51.87908 | -0.34280 | 974 ft | 174 kts | 73° |
| 2026-05-05 17:19 | 51.88218 | -0.32471 | 1924 ft | 165 kts | 70° |
| 2026-05-05 17:19 | 51.88529 | -0.30725 | 2767 ft | 164 kts | 71° |
| 2026-05-05 17:19 | 51.88842 | -0.28960 | 3550 ft | 166 kts | 70° |
| 2026-05-05 17:20 | 51.89238 | -0.27200 | 4225 ft | 169 kts | 54° |
| 2026-05-05 17:20 | 51.90261 | -0.26125 | 4511 ft | 198 kts | 9° |
| 2026-05-05 17:20 | 51.91664 | -0.26552 | 4968 ft | 218 kts | 331° |
| 2026-05-05 17:20 | 51.92622 | -0.28503 | 5548 ft | 234 kts | 289° |
| 2026-05-05 17:21 | 51.92709 | -0.31150 | 6274 ft | 241 kts | 268° |
| 2026-05-05 17:21 | 51.92594 | -0.33839 | 7046 ft | 243 kts | 268° |
| 2026-05-05 17:21 | 51.92483 | -0.36540 | 7811 ft | 245 kts | 268° |
| 2026-05-05 17:22 | 51.93425 | -0.41684 | 9567 ft | 245 kts | 314° |
| 2026-05-05 17:22 | 51.94598 | -0.43661 | 10403 ft | 249 kts | 315° |
| 2026-05-05 17:22 | 51.95790 | -0.45671 | 11220 ft | 252 kts | 314° |
| 2026-05-05 17:22 | 51.97021 | -0.47751 | 12018 ft | 256 kts | 314° |
| 2026-05-05 17:23 | 51.98256 | -0.49842 | 12769 ft | 261 kts | 314° |
| 2026-05-05 17:23 | 51.99522 | -0.51969 | 13529 ft | 264 kts | 315° |
| 2026-05-05 17:23 | 52.00816 | -0.54062 | 14269 ft | 268 kts | 315° |
| 2026-05-05 17:23 | 52.02145 | -0.56203 | 15039 ft | 269 kts | 315° |
| 2026-05-05 17:24 | 52.03486 | -0.58365 | 15788 ft | 271 kts | 315° |
| 2026-05-05 17:24 | 52.04824 | -0.60528 | 16471 ft | 274 kts | 315° |
| 2026-05-05 17:24 | 52.06182 | -0.62724 | 17153 ft | 277 kts | 315° |
| 2026-05-05 17:24 | 52.07548 | -0.64936 | 17802 ft | 279 kts | 315° |
| 2026-05-05 17:25 | 52.08930 | -0.67176 | 18455 ft | 281 kts | 314° |
| 2026-05-05 17:25 | 52.09836 | -0.68646 | 18861 ft | 283 kts | 314° |
| 2026-05-05 17:25 | 52.11711 | -0.71691 | 19613 ft | 288 kts | 314° |
| 2026-05-05 17:25 | 52.13195 | -0.73870 | 20214 ft | 290 kts | 324° |
| 2026-05-05 17:26 | 52.14914 | -0.75606 | 20743 ft | 294 kts | 327° |
| 2026-05-05 17:26 | 52.16662 | -0.77314 | 21279 ft | 296 kts | 326° |
| 2026-05-05 17:26 | 52.18438 | -0.79060 | 21794 ft | 299 kts | 327° |
| 2026-05-05 17:26 | 52.20221 | -0.80816 | 22292 ft | 302 kts | 326° |
| 2026-05-05 17:27 | 52.22036 | -0.82606 | 22769 ft | 305 kts | 326° |
| 2026-05-05 17:27 | 52.23848 | -0.84395 | 23268 ft | 308 kts | 326° |
| 2026-05-05 17:27 | 52.25712 | -0.86239 | 23774 ft | 310 kts | 326° |
| 2026-05-05 17:27 | 52.27555 | -0.88065 | 24287 ft | 312 kts | 326° |
| 2026-05-05 17:28 | 52.29419 | -0.89913 | 24766 ft | 314 kts | 326° |
| 2026-05-05 17:28 | 52.31294 | -0.91775 | 25186 ft | 318 kts | 325° |
| 2026-05-05 17:28 | 52.33204 | -0.93675 | 25601 ft | 322 kts | 326° |
| 2026-05-05 17:28 | 52.35110 | -0.95573 | 26025 ft | 324 kts | 326° |
| 2026-05-05 17:29 | 52.37029 | -0.97486 | 26441 ft | 327 kts | 325° |
| 2026-05-05 17:29 | 52.38937 | -0.99389 | 26817 ft | 329 kts | 325° |
| 2026-05-05 17:29 | 52.40835 | -1.01286 | 27184 ft | 332 kts | 325° |
| 2026-05-05 17:29 | 52.42762 | -1.03213 | 27563 ft | 334 kts | 325° |
| 2026-05-05 17:30 | 52.44708 | -1.05161 | 27943 ft | 335 kts | 325° |
| 2026-05-05 17:30 | 52.46716 | -1.07174 | 28292 ft | 338 kts | 325° |
| 2026-05-05 17:30 | 52.48705 | -1.09169 | 28668 ft | 339 kts | 325° |
| 2026-05-05 17:30 | 52.50715 | -1.11189 | 28975 ft | 342 kts | 325° |
| 2026-05-05 17:31 | 52.52756 | -1.13242 | 29301 ft | 344 kts | 325° |
| 2026-05-05 17:31 | 52.54804 | -1.15304 | 29625 ft | 345 kts | 325° |
| 2026-05-05 17:31 | 52.56867 | -1.17383 | 29966 ft | 347 kts | 326° |
| 2026-05-05 17:31 | 52.58931 | -1.19465 | 30308 ft | 347 kts | 326° |
| 2026-05-05 17:32 | 52.60985 | -1.21537 | 30651 ft | 347 kts | 326° |
| 2026-05-05 17:32 | 52.63046 | -1.23621 | 30888 ft | 351 kts | 325° |
| 2026-05-05 17:32 | 52.65136 | -1.25737 | 31123 ft | 354 kts | 325° |
| 2026-05-05 17:32 | 52.67240 | -1.27869 | 31367 ft | 355 kts | 326° |
| 2026-05-05 17:33 | 52.69360 | -1.30018 | 31671 ft | 354 kts | 326° |
| 2026-05-05 17:33 | 52.71440 | -1.32131 | 31995 ft | 353 kts | 326° |
| 2026-05-05 17:33 | 52.73553 | -1.34283 | 32150 ft | 357 kts | 326° |
| 2026-05-05 17:33 | 52.75669 | -1.36439 | 32310 ft | 360 kts | 327° |
| 2026-05-05 17:34 | 52.77790 | -1.38603 | 32555 ft | 358 kts | 328° |
| 2026-05-05 17:34 | 52.79924 | -1.40782 | 32859 ft | 358 kts | 327° |
| 2026-05-05 17:34 | 52.82067 | -1.42974 | 32891 ft | 364 kts | 328° |
| 2026-05-05 17:34 | 52.84208 | -1.45165 | 33115 ft | 364 kts | 328° |
| 2026-05-05 17:35 | 52.86382 | -1.47393 | 33347 ft | 365 kts | 328° |
| 2026-05-05 17:35 | 52.88571 | -1.49640 | 33489 ft | 367 kts | 328° |
| 2026-05-05 17:35 | 52.90748 | -1.51877 | 33719 ft | 366 kts | 328° |
| 2026-05-05 17:35 | 52.92906 | -1.54096 | 33953 ft | 366 kts | 328° |
| 2026-05-05 17:36 | 52.95063 | -1.56318 | 33990 ft | 368 kts | 328° |
| 2026-05-05 17:36 | 52.99424 | -1.60817 | 33999 ft | 366 kts | 328° |
| 2026-05-05 17:37 | 53.03733 | -1.65274 | 33995 ft | 370 kts | 328° |
| 2026-05-05 17:37 | 53.08396 | -1.68980 | 34000 ft | 381 kts | 339° |
| 2026-05-05 17:38 | 53.13399 | -1.72168 | 34000 ft | 392 kts | 339° |
| 2026-05-05 17:38 | 53.18546 | -1.75469 | 34009 ft | 402 kts | 339° |
| 2026-05-05 17:39 | 53.23803 | -1.78853 | 33999 ft | 412 kts | 339° |
| 2026-05-05 17:39 | 53.29155 | -1.82310 | 33992 ft | 422 kts | 338° |
| 2026-05-05 17:40 | 53.34584 | -1.85828 | 33995 ft | 429 kts | 338° |
| 2026-05-05 17:40 | 53.40186 | -1.89469 | 33988 ft | 437 kts | 338° |
| 2026-05-05 17:41 | 53.45827 | -1.93147 | 33989 ft | 442 kts | 339° |
| 2026-05-05 17:41 | 53.51432 | -1.96813 | 33998 ft | 447 kts | 338° |
| 2026-05-05 17:42 | 53.57186 | -2.00588 | 34036 ft | 451 kts | 338° |
| 2026-05-05 17:42 | 53.63005 | -2.04417 | 33997 ft | 456 kts | 337° |
| 2026-05-05 17:43 | 53.68818 | -2.08254 | 34058 ft | 457 kts | 338° |
| 2026-05-05 17:43 | 53.74594 | -2.12079 | 34026 ft | 461 kts | 337° |
| 2026-05-05 17:44 | 53.80508 | -2.16006 | 34002 ft | 465 kts | 336° |
| 2026-05-05 17:44 | 53.86402 | -2.19933 | 34008 ft | 467 kts | 336° |
| 2026-05-05 17:45 | 53.92303 | -2.23875 | 34024 ft | 469 kts | 336° |
| 2026-05-05 17:45 | 53.98284 | -2.27884 | 34010 ft | 471 kts | 336° |
| 2026-05-05 17:46 | 54.04304 | -2.31931 | 34015 ft | 472 kts | 336° |
| 2026-05-05 17:46 | 54.10400 | -2.36043 | 33998 ft | 474 kts | 336° |
| 2026-05-05 17:47 | 54.16501 | -2.40171 | 33998 ft | 474 kts | 336° |
| 2026-05-05 17:47 | 54.22671 | -2.44359 | 33994 ft | 475 kts | 336° |
| 2026-05-05 17:48 | 54.28809 | -2.48539 | 34004 ft | 476 kts | 336° |
| 2026-05-05 17:48 | 54.34943 | -2.52729 | 34014 ft | 475 kts | 336° |
| 2026-05-05 17:49 | 54.41072 | -2.56930 | 34019 ft | 475 kts | 336° |
| 2026-05-05 17:49 | 54.47205 | -2.61147 | 34024 ft | 474 kts | 336° |
| 2026-05-05 17:50 | 54.53302 | -2.65353 | 34013 ft | 474 kts | 335° |
| 2026-05-05 17:50 | 54.59403 | -2.69575 | 34021 ft | 473 kts | 335° |
| 2026-05-05 17:51 | 54.65539 | -2.73836 | 34016 ft | 473 kts | 335° |
| 2026-05-05 17:51 | 54.71482 | -2.78785 | 34033 ft | 469 kts | 324° |
| 2026-05-05 17:52 | 54.76702 | -2.85714 | 34042 ft | 467 kts | 319° |
| 2026-05-05 17:52 | 54.81812 | -2.92821 | 34036 ft | 468 kts | 319° |
| 2026-05-05 17:53 | 54.86957 | -2.99998 | 34043 ft | 468 kts | 319° |
| 2026-05-05 17:53 | 54.91129 | -3.05831 | 34047 ft | 467 kts | 319° |
| 2026-05-05 17:54 | 54.96196 | -3.12940 | 34049 ft | 466 kts | 319° |
| 2026-05-05 17:54 | 55.01271 | -3.20085 | 34053 ft | 465 kts | 319° |
| 2026-05-05 17:55 | 55.06335 | -3.27238 | 34045 ft | 464 kts | 319° |
| 2026-05-05 17:55 | 55.11382 | -3.34392 | 34047 ft | 464 kts | 319° |
| 2026-05-05 17:56 | 55.16412 | -3.41544 | 34044 ft | 465 kts | 319° |
| 2026-05-05 17:56 | 55.21449 | -3.48730 | 34040 ft | 465 kts | 319° |
| 2026-05-05 17:57 | 55.26470 | -3.55918 | 34037 ft | 465 kts | 319° |
| 2026-05-05 17:57 | 55.31461 | -3.63087 | 34042 ft | 464 kts | 319° |
| 2026-05-05 17:58 | 55.36482 | -3.70322 | 34043 ft | 462 kts | 318° |
| 2026-05-05 17:58 | 55.41483 | -3.77553 | 34046 ft | 461 kts | 318° |
| 2026-05-05 17:59 | 55.46431 | -3.84730 | 34041 ft | 461 kts | 318° |
| 2026-05-05 17:59 | 55.51392 | -3.91952 | 34046 ft | 460 kts | 318° |
| 2026-05-05 18:00 | 55.56349 | -3.99193 | 34038 ft | 459 kts | 318° |
| 2026-05-05 18:00 | 55.61270 | -4.06406 | 34051 ft | 460 kts | 318° |
| 2026-05-05 18:01 | 55.66217 | -4.13680 | 34052 ft | 460 kts | 318° |
| 2026-05-05 18:01 | 55.71137 | -4.20940 | 34071 ft | 459 kts | 318° |
| 2026-05-05 18:02 | 55.76045 | -4.28205 | 34085 ft | 458 kts | 317° |
| 2026-05-05 18:02 | 55.80994 | -4.35558 | 34084 ft | 458 kts | 318° |
| 2026-05-05 18:03 | 55.85979 | -4.42667 | 34079 ft | 459 kts | 323° |
| 2026-05-05 18:03 | 55.91774 | -4.47873 | 34087 ft | 465 kts | 336° |